sensor_id;sensor_type;location;lat;lon;timestamp;temperature;humidity
3478;DHT22;37937;61.490;23.506;2022-12-18T00:00:44;-0.40;99.90
3478;DHT22;37937;61.490;23.506;2022-12-18T00:03:12;-0.40;99.90
3478;DHT22;37937;61.490;23.506;2022-12-18T00:05:45;-0.40;99.90
3478;DHT22;37937;61.490;23.506;2022-12-18T00:08:11;-0.40;99.90
3478;DHT22;37937;61.490;23.506;2022-12-18T00:10:36;-0.40;99.90
3478;DHT22;37937;61.490;23.506;2022-12-18T00:13:02;-0.40;99.90
3478;DHT22;37937;61.490;23.506;2022-12-18T00:15:28;-0.40;99.90
3478;DHT22;37937;61.490;23.506;2022-12-18T00:17:53;-0.40;99.90
3478;DHT22;37937;61.490;23.506;2022-12-18T00:20:19;-0.40;99.90
3478;DHT22;37937;61.490;23.506;2022-12-18T00:22:51;-0.40;99.90
3478;DHT22;37937;61.490;23.506;2022-12-18T00:25:17;-0.40;99.90
3478;DHT22;37937;61.490;23.506;2022-12-18T00:27:42;-0.40;99.90
3478;DHT22;37937;61.490;23.506;2022-12-18T00:30:08;-0.30;99.90
3478;DHT22;37937;61.490;23.506;2022-12-18T00:32:36;-0.30;99.90
3478;DHT22;37937;61.490;23.506;2022-12-18T00:35:02;-0.30;99.90
3478;DHT22;37937;61.490;23.506;2022-12-18T00:37:28;-0.30;99.90
3478;DHT22;37937;61.490;23.506;2022-12-18T00:39:54;-0.30;99.90
3478;DHT22;37937;61.490;23.506;2022-12-18T00:42:19;-0.30;99.90
3478;DHT22;37937;61.490;23.506;2022-12-18T00:45:04;-0.30;99.90
3478;DHT22;37937;61.490;23.506;2022-12-18T00:47:29;-0.20;99.90
3478;DHT22;37937;61.490;23.506;2022-12-18T00:49:55;-0.30;99.90
3478;DHT22;37937;61.490;23.506;2022-12-18T00:52:21;-0.30;99.90
3478;DHT22;37937;61.490;23.506;2022-12-18T00:54:46;-0.30;99.90
3478;DHT22;37937;61.490;23.506;2022-12-18T00:57:12;-0.30;99.90
3478;DHT22;37937;61.490;23.506;2022-12-18T00:59:37;-0.20;99.90
3478;DHT22;37937;61.490;23.506;2022-12-18T01:02:03;-0.20;99.90
3478;DHT22;37937;61.490;23.506;2022-12-18T01:04:30;-0.20;99.90
3478;DHT22;37937;61.490;23.506;2022-12-18T01:06:56;-0.20;99.90
3478;DHT22;37937;61.490;23.506;2022-12-18T01:09:22;-0.20;99.90
3478;DHT22;37937;61.490;23.506;2022-12-18T01:11:47;-0.20;99.90
3478;DHT22;37937;61.490;23.506;2022-12-18T01:14:13;-0.20;99.90
3478;DHT22;37937;61.490;23.506;2022-12-18T01:16:39;-0.20;99.90
3478;DHT22;37937;61.490;23.506;2022-12-18T01:19:04;-0.20;99.90
3478;DHT22;37937;61.490;23.506;2022-12-18T01:21:30;-0.20;99.90
3478;DHT22;37937;61.490;23.506;2022-12-18T01:23:56;-0.20;99.90
3478;DHT22;37937;61.490;23.506;2022-12-18T01:26:21;-0.30;99.90
3478;DHT22;37937;61.490;23.506;2022-12-18T01:28:47;-0.20;99.90
3478;DHT22;37937;61.490;23.506;2022-12-18T01:31:14;-0.30;99.90
3478;DHT22;37937;61.490;23.506;2022-12-18T01:33:40;-0.20;99.90
3478;DHT22;37937;61.490;23.506;2022-12-18T01:36:06;-0.20;99.90
3478;DHT22;37937;61.490;23.506;2022-12-18T01:38:31;-0.20;99.90
3478;DHT22;37937;61.490;23.506;2022-12-18T01:40:58;-0.20;99.90
3478;DHT22;37937;61.490;23.506;2022-12-18T01:43:40;-0.20;99.90
3478;DHT22;37937;61.490;23.506;2022-12-18T01:46:05;-0.20;99.90
3478;DHT22;37937;61.490;23.506;2022-12-18T01:48:31;-0.20;99.90
3478;DHT22;37937;61.490;23.506;2022-12-18T01:50:57;-0.10;99.90
3478;DHT22;37937;61.490;23.506;2022-12-18T01:53:22;-0.20;99.90
3478;DHT22;37937;61.490;23.506;2022-12-18T01:55:55;-0.20;99.90
3478;DHT22;37937;61.490;23.506;2022-12-18T01:58:24;-0.20;99.90
3478;DHT22;37937;61.490;23.506;2022-12-18T02:00:53;-0.20;99.90
3478;DHT22;37937;61.490;23.506;2022-12-18T02:03:19;-0.20;99.90
3478;DHT22;37937;61.490;23.506;2022-12-18T02:06:05;-0.20;99.90
3478;DHT22;37937;61.490;23.506;2022-12-18T02:08:45;-0.20;99.90
3478;DHT22;37937;61.490;23.506;2022-12-18T02:14:07;-0.20;99.90
3478;DHT22;37937;61.490;23.506;2022-12-18T02:19:06;-0.20;99.90
3478;DHT22;37937;61.490;23.506;2022-12-18T02:21:40;-0.20;99.90
3478;DHT22;37937;61.490;23.506;2022-12-18T02:26:43;-0.20;99.90
3478;DHT22;37937;61.490;23.506;2022-12-18T02:29:13;-0.20;99.90
3478;DHT22;37937;61.490;23.506;2022-12-18T02:31:43;-0.20;99.90
3478;DHT22;37937;61.490;23.506;2022-12-18T02:34:10;-0.20;99.90
3478;DHT22;37937;61.490;23.506;2022-12-18T02:36:38;-0.20;99.90
3478;DHT22;37937;61.490;23.506;2022-12-18T02:39:04;-0.20;99.90
3478;DHT22;37937;61.490;23.506;2022-12-18T02:41:30;-0.30;99.90
3478;DHT22;37937;61.490;23.506;2022-12-18T02:44:06;-0.30;99.90
3478;DHT22;37937;61.490;23.506;2022-12-18T02:46:33;-0.30;99.90
3478;DHT22;37937;61.490;23.506;2022-12-18T02:49:05;-0.30;99.90
3478;DHT22;37937;61.490;23.506;2022-12-18T02:54:39;-0.30;99.90
3478;DHT22;37937;61.490;23.506;2022-12-18T02:59:52;-0.30;99.90
3478;DHT22;37937;61.490;23.506;2022-12-18T03:02:29;-0.30;99.90
3478;DHT22;37937;61.490;23.506;2022-12-18T03:07:25;-0.30;99.90
3478;DHT22;37937;61.490;23.506;2022-12-18T03:09:52;-0.30;99.90
3478;DHT22;37937;61.490;23.506;2022-12-18T03:12:32;-0.30;99.90
3478;DHT22;37937;61.490;23.506;2022-12-18T03:17:37;-0.30;99.90
3478;DHT22;37937;61.490;23.506;2022-12-18T03:20:06;-0.30;99.90
3478;DHT22;37937;61.490;23.506;2022-12-18T03:22:33;-0.40;99.90
3478;DHT22;37937;61.490;23.506;2022-12-18T03:25:00;-0.40;99.90
3478;DHT22;37937;61.490;23.506;2022-12-18T03:27:27;-0.30;99.90
3478;DHT22;37937;61.490;23.506;2022-12-18T03:30:02;-0.40;99.90
3478;DHT22;37937;61.490;23.506;2022-12-18T03:35:06;-0.40;99.90
3478;DHT22;37937;61.490;23.506;2022-12-18T03:37:32;-0.40;99.90
3478;DHT22;37937;61.490;23.506;2022-12-18T03:39:58;-0.40;99.90
3478;DHT22;37937;61.490;23.506;2022-12-18T03:42:28;-0.40;99.90
3478;DHT22;37937;61.490;23.506;2022-12-18T03:45:08;-0.40;99.90
3478;DHT22;37937;61.490;23.506;2022-12-18T03:47:37;-0.40;99.90
3478;DHT22;37937;61.490;23.506;2022-12-18T03:52:32;-0.40;99.90
3478;DHT22;37937;61.490;23.506;2022-12-18T03:55:01;-0.40;99.90
3478;DHT22;37937;61.490;23.506;2022-12-18T03:57:28;-0.30;99.90
3478;DHT22;37937;61.490;23.506;2022-12-18T04:00:00;-0.40;99.90
3478;DHT22;37937;61.490;23.506;2022-12-18T04:02:26;-0.40;99.90
3478;DHT22;37937;61.490;23.506;2022-12-18T04:04:55;-0.40;99.90
3478;DHT22;37937;61.490;23.506;2022-12-18T04:07:23;-0.40;99.90
3478;DHT22;37937;61.490;23.506;2022-12-18T04:09:49;-0.40;99.90
3478;DHT22;37937;61.490;23.506;2022-12-18T04:12:16;-0.40;99.90
3478;DHT22;37937;61.490;23.506;2022-12-18T04:14:41;-0.40;99.90
3478;DHT22;37937;61.490;23.506;2022-12-18T04:17:07;-0.40;99.90
3478;DHT22;37937;61.490;23.506;2022-12-18T04:19:33;-0.40;99.90
3478;DHT22;37937;61.490;23.506;2022-12-18T04:21:58;-0.40;99.90
3478;DHT22;37937;61.490;23.506;2022-12-18T04:24:24;-0.30;99.90
3478;DHT22;37937;61.490;23.506;2022-12-18T04:26:49;-0.30;99.90
3478;DHT22;37937;61.490;23.506;2022-12-18T04:29:15;-0.30;99.90
3478;DHT22;37937;61.490;23.506;2022-12-18T04:31:41;-0.30;99.90
3478;DHT22;37937;61.490;23.506;2022-12-18T04:34:06;-0.40;99.90
3478;DHT22;37937;61.490;23.506;2022-12-18T04:36:32;-0.30;99.90
3478;DHT22;37937;61.490;23.506;2022-12-18T04:38:57;-0.30;99.90
3478;DHT22;37937;61.490;23.506;2022-12-18T04:41:23;-0.30;99.90
3478;DHT22;37937;61.490;23.506;2022-12-18T04:43:49;-0.30;99.90
3478;DHT22;37937;61.490;23.506;2022-12-18T04:46:14;-0.30;99.90
3478;DHT22;37937;61.490;23.506;2022-12-18T04:48:40;-0.30;99.90
3478;DHT22;37937;61.490;23.506;2022-12-18T04:51:05;-0.30;99.90
3478;DHT22;37937;61.490;23.506;2022-12-18T04:53:32;-0.30;99.90
3478;DHT22;37937;61.490;23.506;2022-12-18T04:56:11;-0.30;99.90
3478;DHT22;37937;61.490;23.506;2022-12-18T04:58:37;-0.30;99.90
3478;DHT22;37937;61.490;23.506;2022-12-18T05:01:03;-0.30;99.90
3478;DHT22;37937;61.490;23.506;2022-12-18T05:03:29;-0.30;99.90
3478;DHT22;37937;61.490;23.506;2022-12-18T05:05:55;-0.20;99.90
3478;DHT22;37937;61.490;23.506;2022-12-18T05:08:20;-0.30;99.90
3478;DHT22;37937;61.490;23.506;2022-12-18T05:10:46;-0.30;99.90
3478;DHT22;37937;61.490;23.506;2022-12-18T05:13:12;-0.20;99.90
3478;DHT22;37937;61.490;23.506;2022-12-18T05:15:37;-0.20;99.90
3478;DHT22;37937;61.490;23.506;2022-12-18T05:18:03;-0.20;99.90
3478;DHT22;37937;61.490;23.506;2022-12-18T05:20:29;-0.20;99.90
3478;DHT22;37937;61.490;23.506;2022-12-18T05:22:55;-0.20;99.90
3478;DHT22;37937;61.490;23.506;2022-12-18T05:25:21;-0.30;99.90
3478;DHT22;37937;61.490;23.506;2022-12-18T05:27:47;-0.20;99.90
3478;DHT22;37937;61.490;23.506;2022-12-18T05:30:13;-0.20;99.90
3478;DHT22;37937;61.490;23.506;2022-12-18T05:32:39;-0.20;99.90
3478;DHT22;37937;61.490;23.506;2022-12-18T05:35:05;-0.20;99.90
3478;DHT22;37937;61.490;23.506;2022-12-18T05:37:31;-0.20;99.90
3478;DHT22;37937;61.490;23.506;2022-12-18T05:39:57;-0.20;99.90
3478;DHT22;37937;61.490;23.506;2022-12-18T05:42:22;-0.20;99.90
3478;DHT22;37937;61.490;23.506;2022-12-18T05:44:48;-0.20;99.90
3478;DHT22;37937;61.490;23.506;2022-12-18T05:47:13;-0.20;99.90
3478;DHT22;37937;61.490;23.506;2022-12-18T05:49:39;-0.20;99.90
3478;DHT22;37937;61.490;23.506;2022-12-18T05:52:05;-0.20;99.90
3478;DHT22;37937;61.490;23.506;2022-12-18T05:54:30;-0.20;99.90
3478;DHT22;37937;61.490;23.506;2022-12-18T05:56:56;-0.10;99.90
3478;DHT22;37937;61.490;23.506;2022-12-18T05:59:22;-0.20;99.90
3478;DHT22;37937;61.490;23.506;2022-12-18T06:01:48;-0.20;99.90
3478;DHT22;37937;61.490;23.506;2022-12-18T06:04:13;-0.20;99.90
3478;DHT22;37937;61.490;23.506;2022-12-18T06:06:39;-0.20;99.90
3478;DHT22;37937;61.490;23.506;2022-12-18T06:09:05;-0.20;99.90
3478;DHT22;37937;61.490;23.506;2022-12-18T06:11:35;-0.20;99.90
3478;DHT22;37937;61.490;23.506;2022-12-18T06:14:01;-0.20;99.90
3478;DHT22;37937;61.490;23.506;2022-12-18T06:16:27;-0.20;99.90
3478;DHT22;37937;61.490;23.506;2022-12-18T06:18:55;-0.10;99.90
3478;DHT22;37937;61.490;23.506;2022-12-18T06:21:21;-0.10;99.90
3478;DHT22;37937;61.490;23.506;2022-12-18T06:23:46;-0.20;99.90
3478;DHT22;37937;61.490;23.506;2022-12-18T06:26:12;-0.10;99.90
3478;DHT22;37937;61.490;23.506;2022-12-18T06:28:38;-0.10;99.90
3478;DHT22;37937;61.490;23.506;2022-12-18T06:31:04;-0.10;99.90
3478;DHT22;37937;61.490;23.506;2022-12-18T06:33:30;-0.10;99.90
3478;DHT22;37937;61.490;23.506;2022-12-18T06:36:02;-0.10;99.90
3478;DHT22;37937;61.490;23.506;2022-12-18T06:38:28;-0.10;99.90
3478;DHT22;37937;61.490;23.506;2022-12-18T06:40:54;-0.10;99.90
3478;DHT22;37937;61.490;23.506;2022-12-18T06:43:20;-0.10;99.90
3478;DHT22;37937;61.490;23.506;2022-12-18T06:45:45;-0.10;99.90
3478;DHT22;37937;61.490;23.506;2022-12-18T06:48:14;-0.10;99.90
3478;DHT22;37937;61.490;23.506;2022-12-18T06:50:43;-0.10;99.90
3478;DHT22;37937;61.490;23.506;2022-12-18T06:53:08;-0.10;99.90
3478;DHT22;37937;61.490;23.506;2022-12-18T06:55:34;-0.10;99.90
3478;DHT22;37937;61.490;23.506;2022-12-18T06:58:00;-0.10;99.90
3478;DHT22;37937;61.490;23.506;2022-12-18T07:00:25;-0.10;99.90
3478;DHT22;37937;61.490;23.506;2022-12-18T07:02:51;-0.10;99.90
3478;DHT22;37937;61.490;23.506;2022-12-18T07:05:16;-0.10;99.90
3478;DHT22;37937;61.490;23.506;2022-12-18T07:07:42;-0.10;99.90
3478;DHT22;37937;61.490;23.506;2022-12-18T07:10:08;-0.10;99.90
3478;DHT22;37937;61.490;23.506;2022-12-18T07:12:33;-0.10;99.90
3478;DHT22;37937;61.490;23.506;2022-12-18T07:14:59;-0.10;99.90
3478;DHT22;37937;61.490;23.506;2022-12-18T07:17:25;-0.10;99.90
3478;DHT22;37937;61.490;23.506;2022-12-18T07:19:50;0.00;99.90
3478;DHT22;37937;61.490;23.506;2022-12-18T07:22:16;0.00;99.90
3478;DHT22;37937;61.490;23.506;2022-12-18T07:24:41;0.00;99.90
3478;DHT22;37937;61.490;23.506;2022-12-18T07:27:07;0.00;99.90
3478;DHT22;37937;61.490;23.506;2022-12-18T07:29:33;0.00;99.90
3478;DHT22;37937;61.490;23.506;2022-12-18T07:31:58;0.00;99.90
3478;DHT22;37937;61.490;23.506;2022-12-18T07:34:24;0.00;99.90
3478;DHT22;37937;61.490;23.506;2022-12-18T07:36:50;0.00;99.90
3478;DHT22;37937;61.490;23.506;2022-12-18T07:39:15;0.00;99.90
3478;DHT22;37937;61.490;23.506;2022-12-18T07:41:41;0.00;99.90
3478;DHT22;37937;61.490;23.506;2022-12-18T07:44:26;0.00;99.90
3478;DHT22;37937;61.490;23.506;2022-12-18T07:46:52;0.00;99.90
3478;DHT22;37937;61.490;23.506;2022-12-18T07:49:18;0.00;99.90
3478;DHT22;37937;61.490;23.506;2022-12-18T07:51:43;0.00;99.90
3478;DHT22;37937;61.490;23.506;2022-12-18T07:54:14;0.00;99.90
3478;DHT22;37937;61.490;23.506;2022-12-18T07:56:40;0.00;99.90
3478;DHT22;37937;61.490;23.506;2022-12-18T07:59:05;0.00;99.90
3478;DHT22;37937;61.490;23.506;2022-12-18T08:01:31;0.00;99.90
3478;DHT22;37937;61.490;23.506;2022-12-18T08:03:58;0.00;99.90
3478;DHT22;37937;61.490;23.506;2022-12-18T08:06:24;0.00;99.90
3478;DHT22;37937;61.490;23.506;2022-12-18T08:08:52;0.00;99.90
3478;DHT22;37937;61.490;23.506;2022-12-18T08:11:18;0.00;99.90
3478;DHT22;37937;61.490;23.506;2022-12-18T08:13:44;0.00;99.90
3478;DHT22;37937;61.490;23.506;2022-12-18T08:16:09;0.00;99.90
3478;DHT22;37937;61.490;23.506;2022-12-18T08:18:36;0.00;99.90
3478;DHT22;37937;61.490;23.506;2022-12-18T08:21:18;0.00;99.90
3478;DHT22;37937;61.490;23.506;2022-12-18T08:23:46;0.10;99.90
3478;DHT22;37937;61.490;23.506;2022-12-18T08:26:12;0.00;99.90
3478;DHT22;37937;61.490;23.506;2022-12-18T08:28:37;0.00;99.90
3478;DHT22;37937;61.490;23.506;2022-12-18T08:31:03;0.00;99.90
3478;DHT22;37937;61.490;23.506;2022-12-18T08:33:29;0.00;99.90
3478;DHT22;37937;61.490;23.506;2022-12-18T08:35:55;0.00;99.90
3478;DHT22;37937;61.490;23.506;2022-12-18T08:38:20;0.00;99.90
3478;DHT22;37937;61.490;23.506;2022-12-18T08:40:46;0.00;99.90
3478;DHT22;37937;61.490;23.506;2022-12-18T08:43:11;0.10;99.90
3478;DHT22;37937;61.490;23.506;2022-12-18T08:45:56;0.00;99.90
3478;DHT22;37937;61.490;23.506;2022-12-18T08:48:22;0.00;99.90
3478;DHT22;37937;61.490;23.506;2022-12-18T08:50:57;0.00;99.90
3478;DHT22;37937;61.490;23.506;2022-12-18T08:53:23;0.00;99.90
3478;DHT22;37937;61.490;23.506;2022-12-18T08:55:49;0.00;99.90
3478;DHT22;37937;61.490;23.506;2022-12-18T08:58:15;0.00;99.90
3478;DHT22;37937;61.490;23.506;2022-12-18T09:00:40;0.00;99.90
3478;DHT22;37937;61.490;23.506;2022-12-18T09:03:10;0.10;99.90
3478;DHT22;37937;61.490;23.506;2022-12-18T09:05:36;0.00;99.90
3478;DHT22;37937;61.490;23.506;2022-12-18T09:08:02;0.00;99.90
3478;DHT22;37937;61.490;23.506;2022-12-18T09:10:28;0.00;99.90
3478;DHT22;37937;61.490;23.506;2022-12-18T09:12:53;0.00;99.90
3478;DHT22;37937;61.490;23.506;2022-12-18T09:15:21;0.00;99.90
3478;DHT22;37937;61.490;23.506;2022-12-18T09:17:47;0.00;99.90
3478;DHT22;37937;61.490;23.506;2022-12-18T09:20:13;0.00;99.90
3478;DHT22;37937;61.490;23.506;2022-12-18T09:22:39;0.00;99.90
3478;DHT22;37937;61.490;23.506;2022-12-18T09:25:04;0.00;99.90
3478;DHT22;37937;61.490;23.506;2022-12-18T09:27:33;0.00;99.90
3478;DHT22;37937;61.490;23.506;2022-12-18T09:29:59;0.00;99.90
3478;DHT22;37937;61.490;23.506;2022-12-18T09:32:24;0.00;99.90
3478;DHT22;37937;61.490;23.506;2022-12-18T09:34:50;-0.10;99.90
3478;DHT22;37937;61.490;23.506;2022-12-18T09:37:15;-0.10;99.90
3478;DHT22;37937;61.490;23.506;2022-12-18T09:39:41;-0.10;99.90
3478;DHT22;37937;61.490;23.506;2022-12-18T09:42:09;-0.10;99.90
3478;DHT22;37937;61.490;23.506;2022-12-18T09:44:41;-0.10;99.90
3478;DHT22;37937;61.490;23.506;2022-12-18T09:47:09;-0.10;99.90
3478;DHT22;37937;61.490;23.506;2022-12-18T09:49:38;-0.10;99.90
3478;DHT22;37937;61.490;23.506;2022-12-18T09:52:08;-0.10;99.90
3478;DHT22;37937;61.490;23.506;2022-12-18T09:54:40;-0.10;99.90
3478;DHT22;37937;61.490;23.506;2022-12-18T09:57:10;-0.10;99.90
3478;DHT22;37937;61.490;23.506;2022-12-18T09:59:37;-0.10;99.90
3478;DHT22;37937;61.490;23.506;2022-12-18T10:02:12;-0.10;99.90
3478;DHT22;37937;61.490;23.506;2022-12-18T10:04:39;-0.20;99.90
3478;DHT22;37937;61.490;23.506;2022-12-18T10:07:16;-0.20;99.90
3478;DHT22;37937;61.490;23.506;2022-12-18T10:09:55;-0.20;99.90
3478;DHT22;37937;61.490;23.506;2022-12-18T10:12:26;-0.20;99.90
3478;DHT22;37937;61.490;23.506;2022-12-18T10:19:51;-0.20;99.90
3478;DHT22;37937;61.490;23.506;2022-12-18T10:25:23;-0.20;99.90
3478;DHT22;37937;61.490;23.506;2022-12-18T10:27:54;-0.20;99.90
3478;DHT22;37937;61.490;23.506;2022-12-18T10:30:22;-0.20;99.90
3478;DHT22;37937;61.490;23.506;2022-12-18T10:32:48;-0.20;99.90
3478;DHT22;37937;61.490;23.506;2022-12-18T10:35:18;-0.20;99.90
3478;DHT22;37937;61.490;23.506;2022-12-18T10:40:25;-0.20;99.90
3478;DHT22;37937;61.490;23.506;2022-12-18T10:45:59;-0.20;99.90
3478;DHT22;37937;61.490;23.506;2022-12-18T10:48:25;-0.30;99.90
3478;DHT22;37937;61.490;23.506;2022-12-18T10:50:51;-0.20;99.90
3478;DHT22;37937;61.490;23.506;2022-12-18T10:53:24;-0.30;99.90
3478;DHT22;37937;61.490;23.506;2022-12-18T10:55:50;-0.30;99.90
3478;DHT22;37937;61.490;23.506;2022-12-18T10:58:30;-0.20;99.90
3478;DHT22;37937;61.490;23.506;2022-12-18T11:03:32;-0.20;99.90
3478;DHT22;37937;61.490;23.506;2022-12-18T11:06:06;-0.20;99.90
3478;DHT22;37937;61.490;23.506;2022-12-18T11:08:32;-0.20;99.90
3478;DHT22;37937;61.490;23.506;2022-12-18T11:10:58;-0.20;99.90
3478;DHT22;37937;61.490;23.506;2022-12-18T11:13:24;-0.20;99.90
3478;DHT22;37937;61.490;23.506;2022-12-18T11:15:51;-0.20;99.90
3478;DHT22;37937;61.490;23.506;2022-12-18T11:18:22;-0.10;99.90
3478;DHT22;37937;61.490;23.506;2022-12-18T11:20:59;-0.10;99.90
3478;DHT22;37937;61.490;23.506;2022-12-18T11:23:26;-0.10;99.90
3478;DHT22;37937;61.490;23.506;2022-12-18T11:25:56;-0.10;99.90
3478;DHT22;37937;61.490;23.506;2022-12-18T11:34:08;-0.10;99.90
3478;DHT22;37937;61.490;23.506;2022-12-18T11:36:32;-0.10;99.90
3478;DHT22;37937;61.490;23.506;2022-12-18T11:38:59;-0.20;99.90
3478;DHT22;37937;61.490;23.506;2022-12-18T11:41:31;-0.10;99.90
3478;DHT22;37937;61.490;23.506;2022-12-18T11:44:27;-0.20;99.90
3478;DHT22;37937;61.490;23.506;2022-12-18T11:46:58;-0.20;99.90
3478;DHT22;37937;61.490;23.506;2022-12-18T11:54:36;-0.20;99.90
3478;DHT22;37937;61.490;23.506;2022-12-18T11:57:05;-0.10;99.90
3478;DHT22;37937;61.490;23.506;2022-12-18T11:59:35;-0.20;99.90
3478;DHT22;37937;61.490;23.506;2022-12-18T12:05:00;-0.20;99.90
3478;DHT22;37937;61.490;23.506;2022-12-18T12:07:38;-0.10;99.90
3478;DHT22;37937;61.490;23.506;2022-12-18T12:15:23;-0.10;99.90
3478;DHT22;37937;61.490;23.506;2022-12-18T12:20:26;-0.10;99.90
3478;DHT22;37937;61.490;23.506;2022-12-18T12:23:01;-0.10;99.90
3478;DHT22;37937;61.490;23.506;2022-12-18T12:30:28;0.00;99.90
3478;DHT22;37937;61.490;23.506;2022-12-18T12:38:27;0.00;99.90
3478;DHT22;37937;61.490;23.506;2022-12-18T12:40:57;0.10;99.90
3478;DHT22;37937;61.490;23.506;2022-12-18T12:46:09;0.00;99.90
3478;DHT22;37937;61.490;23.506;2022-12-18T12:51:01;0.10;99.90
3478;DHT22;37937;61.490;23.506;2022-12-18T12:53:30;0.10;99.90
3478;DHT22;37937;61.490;23.506;2022-12-18T12:55:56;0.10;99.90
3478;DHT22;37937;61.490;23.506;2022-12-18T13:04:34;0.10;99.90
3478;DHT22;37937;61.490;23.506;2022-12-18T13:09:09;0.10;99.90
3478;DHT22;37937;61.490;23.506;2022-12-18T13:11:36;0.10;99.90
3478;DHT22;37937;61.490;23.506;2022-12-18T13:14:31;0.10;99.90
3478;DHT22;37937;61.490;23.506;2022-12-18T13:19:42;0.10;99.90
3478;DHT22;37937;61.490;23.506;2022-12-18T13:22:21;0.10;99.90
3478;DHT22;37937;61.490;23.506;2022-12-18T13:24:47;0.10;99.90
3478;DHT22;37937;61.490;23.506;2022-12-18T13:29:57;0.10;99.90
3478;DHT22;37937;61.490;23.506;2022-12-18T13:32:24;0.10;99.90
3478;DHT22;37937;61.490;23.506;2022-12-18T13:35:13;0.10;99.90
3478;DHT22;37937;61.490;23.506;2022-12-18T13:40:23;0.20;99.90
3478;DHT22;37937;61.490;23.506;2022-12-18T13:42:50;0.20;99.90
3478;DHT22;37937;61.490;23.506;2022-12-18T13:45:35;0.20;99.90
3478;DHT22;37937;61.490;23.506;2022-12-18T13:48:02;0.20;99.90
3478;DHT22;37937;61.490;23.506;2022-12-18T13:50:28;0.20;99.90
3478;DHT22;37937;61.490;23.506;2022-12-18T13:52:54;0.20;99.90
3478;DHT22;37937;61.490;23.506;2022-12-18T13:55:20;0.10;99.90
3478;DHT22;37937;61.490;23.506;2022-12-18T13:57:46;0.20;99.90
3478;DHT22;37937;61.490;23.506;2022-12-18T14:02:47;0.20;99.90
3478;DHT22;37937;61.490;23.506;2022-12-18T14:05:27;0.10;99.90
3478;DHT22;37937;61.490;23.506;2022-12-18T14:07:53;0.10;99.90
3478;DHT22;37937;61.490;23.506;2022-12-18T14:10:19;0.10;99.90
3478;DHT22;37937;61.490;23.506;2022-12-18T14:12:45;0.20;99.90
3478;DHT22;37937;61.490;23.506;2022-12-18T14:18:02;0.20;99.90
3478;DHT22;37937;61.490;23.506;2022-12-18T14:20:31;0.20;99.90
3478;DHT22;37937;61.490;23.506;2022-12-18T14:22:58;0.20;99.90
3478;DHT22;37937;61.490;23.506;2022-12-18T14:25:26;0.20;99.90
3478;DHT22;37937;61.490;23.506;2022-12-18T14:27:53;0.20;99.90
3478;DHT22;37937;61.490;23.506;2022-12-18T14:30:28;0.20;99.90
3478;DHT22;37937;61.490;23.506;2022-12-18T14:35:29;0.20;99.90
3478;DHT22;37937;61.490;23.506;2022-12-18T14:38:09;0.20;99.90
3478;DHT22;37937;61.490;23.506;2022-12-18T14:40:34;0.20;99.90
3478;DHT22;37937;61.490;23.506;2022-12-18T14:43:00;0.20;99.90
3478;DHT22;37937;61.490;23.506;2022-12-18T14:45:33;0.20;99.90
3478;DHT22;37937;61.490;23.506;2022-12-18T14:47:59;0.20;99.90
3478;DHT22;37937;61.490;23.506;2022-12-18T14:50:25;0.20;99.90
3478;DHT22;37937;61.490;23.506;2022-12-18T14:52:51;0.20;99.90
3478;DHT22;37937;61.490;23.506;2022-12-18T14:55:17;0.20;99.90
3478;DHT22;37937;61.490;23.506;2022-12-18T14:57:43;0.20;99.90
3478;DHT22;37937;61.490;23.506;2022-12-18T15:00:19;0.20;99.90
3478;DHT22;37937;61.490;23.506;2022-12-18T15:02:54;0.20;99.90
3478;DHT22;37937;61.490;23.506;2022-12-18T15:07:50;0.20;99.90
3478;DHT22;37937;61.490;23.506;2022-12-18T15:10:18;0.20;99.90
3478;DHT22;37937;61.490;23.506;2022-12-18T15:12:45;0.20;99.90
3478;DHT22;37937;61.490;23.506;2022-12-18T15:18:00;0.30;99.90
3478;DHT22;37937;61.490;23.506;2022-12-18T15:20:26;0.30;99.90
3478;DHT22;37937;61.490;23.506;2022-12-18T15:22:52;0.30;99.90
3478;DHT22;37937;61.490;23.506;2022-12-18T15:25:29;0.30;99.90
3478;DHT22;37937;61.490;23.506;2022-12-18T15:27:57;0.30;99.90
3478;DHT22;37937;61.490;23.506;2022-12-18T15:30:23;0.30;99.90
3478;DHT22;37937;61.490;23.506;2022-12-18T15:32:49;0.40;99.90
3478;DHT22;37937;61.490;23.506;2022-12-18T15:35:20;0.40;99.90
3478;DHT22;37937;61.490;23.506;2022-12-18T15:37:46;0.40;99.90
3478;DHT22;37937;61.490;23.506;2022-12-18T15:42:40;0.40;99.90
3478;DHT22;37937;61.490;23.506;2022-12-18T15:45:25;0.40;99.90
3478;DHT22;37937;61.490;23.506;2022-12-18T15:47:50;0.40;99.90
3478;DHT22;37937;61.490;23.506;2022-12-18T15:50:16;0.40;99.90
3478;DHT22;37937;61.490;23.506;2022-12-18T15:52:43;0.50;99.90
3478;DHT22;37937;61.490;23.506;2022-12-18T15:55:13;0.40;99.90
3478;DHT22;37937;61.490;23.506;2022-12-18T15:57:58;0.50;99.90
3478;DHT22;37937;61.490;23.506;2022-12-18T16:00:23;0.50;99.90
3478;DHT22;37937;61.490;23.506;2022-12-18T16:02:49;0.50;99.90
3478;DHT22;37937;61.490;23.506;2022-12-18T16:05:15;0.50;99.90
3478;DHT22;37937;61.490;23.506;2022-12-18T16:07:42;0.50;99.90
3478;DHT22;37937;61.490;23.506;2022-12-18T16:10:08;0.50;99.90
3478;DHT22;37937;61.490;23.506;2022-12-18T16:12:34;0.50;99.90
3478;DHT22;37937;61.490;23.506;2022-12-18T16:14:59;0.50;99.90
3478;DHT22;37937;61.490;23.506;2022-12-18T16:17:25;0.50;99.90
3478;DHT22;37937;61.490;23.506;2022-12-18T16:19:50;0.50;99.90
3478;DHT22;37937;61.490;23.506;2022-12-18T16:22:20;0.50;99.90
3478;DHT22;37937;61.490;23.506;2022-12-18T16:24:48;0.50;99.90
3478;DHT22;37937;61.490;23.506;2022-12-18T16:27:14;0.50;99.90
3478;DHT22;37937;61.490;23.506;2022-12-18T16:29:39;0.50;99.90
3478;DHT22;37937;61.490;23.506;2022-12-18T16:32:05;0.50;99.90
3478;DHT22;37937;61.490;23.506;2022-12-18T16:34:31;0.50;99.90
3478;DHT22;37937;61.490;23.506;2022-12-18T16:36:58;0.50;99.90
3478;DHT22;37937;61.490;23.506;2022-12-18T16:39:25;0.50;99.90
3478;DHT22;37937;61.490;23.506;2022-12-18T16:41:50;0.50;99.90
3478;DHT22;37937;61.490;23.506;2022-12-18T16:44:16;0.60;99.90
3478;DHT22;37937;61.490;23.506;2022-12-18T16:46:42;0.60;99.90
3478;DHT22;37937;61.490;23.506;2022-12-18T16:49:14;0.60;99.90
3478;DHT22;37937;61.490;23.506;2022-12-18T16:51:40;0.60;99.90
3478;DHT22;37937;61.490;23.506;2022-12-18T16:54:05;0.60;99.90
3478;DHT22;37937;61.490;23.506;2022-12-18T16:56:31;0.60;99.90
3478;DHT22;37937;61.490;23.506;2022-12-18T16:58:57;0.60;99.90
3478;DHT22;37937;61.490;23.506;2022-12-18T17:01:24;0.60;99.90
3478;DHT22;37937;61.490;23.506;2022-12-18T17:03:51;0.60;99.90
3478;DHT22;37937;61.490;23.506;2022-12-18T17:06:17;0.60;99.90
3478;DHT22;37937;61.490;23.506;2022-12-18T17:08:43;0.60;99.90
3478;DHT22;37937;61.490;23.506;2022-12-18T17:11:08;0.70;99.90
3478;DHT22;37937;61.490;23.506;2022-12-18T17:13:34;0.60;99.90
3478;DHT22;37937;61.490;23.506;2022-12-18T17:16:03;0.60;99.90
3478;DHT22;37937;61.490;23.506;2022-12-18T17:18:29;0.60;99.90
3478;DHT22;37937;61.490;23.506;2022-12-18T17:20:59;0.60;99.90
3478;DHT22;37937;61.490;23.506;2022-12-18T17:23:25;0.60;99.90
3478;DHT22;37937;61.490;23.506;2022-12-18T17:25:54;0.60;99.90
3478;DHT22;37937;61.490;23.506;2022-12-18T17:28:21;0.60;99.90
3478;DHT22;37937;61.490;23.506;2022-12-18T17:30:47;0.60;99.90